sensor_id;sensor_type;location;lat;lon;timestamp;temperature;humidity
22299;DHT22;11317;51.072;17.036;2023-04-03T00:07:27;2.70;1.00
22299;DHT22;11317;51.072;17.036;2023-04-03T00:29:22;2.20;99.90
22299;DHT22;11317;51.072;17.036;2023-04-03T00:31:48;3.00;1.00
22299;DHT22;11317;51.072;17.036;2023-04-03T00:36:40;1.80;99.90
22299;DHT22;11317;51.072;17.036;2023-04-03T00:51:20;2.00;99.90
22299;DHT22;11317;51.072;17.036;2023-04-03T00:53:58;2.20;1.00
22299;DHT22;11317;51.072;17.036;2023-04-03T00:56:27;1.90;1.00
22299;DHT22;11317;51.072;17.036;2023-04-03T00:58:57;2.00;1.00
22299;DHT22;11317;51.072;17.036;2023-04-03T01:18:37;1.90;1.00
22299;DHT22;11317;51.072;17.036;2023-04-03T01:28:37;1.60;1.00
22299;DHT22;11317;51.072;17.036;2023-04-03T01:48:06;1.70;1.00
22299;DHT22;11317;51.072;17.036;2023-04-03T01:52:58;1.50;1.00
22299;DHT22;11317;51.072;17.036;2023-04-03T02:41:42;1.40;99.90
22299;DHT22;11317;51.072;17.036;2023-04-03T02:44:10;0.40;1.00
22299;DHT22;11317;51.072;17.036;2023-04-03T02:49:03;1.20;1.00
22299;DHT22;11317;51.072;17.036;2023-04-03T02:51:29;1.00;99.90
22299;DHT22;11317;51.072;17.036;2023-04-03T03:03:40;2.10;1.00
22299;DHT22;11317;51.072;17.036;2023-04-03T03:08:34;1.00;99.90
22299;DHT22;11317;51.072;17.036;2023-04-03T03:13:26;0.90;99.90
22299;DHT22;11317;51.072;17.036;2023-04-03T03:15:52;1.10;99.90
22299;DHT22;11317;51.072;17.036;2023-04-03T03:18:18;0.30;99.90
22299;DHT22;11317;51.072;17.036;2023-04-03T03:20:44;0.90;1.00
22299;DHT22;11317;51.072;17.036;2023-04-03T03:25:40;0.90;99.90
22299;DHT22;11317;51.072;17.036;2023-04-03T03:28:07;0.80;99.90
22299;DHT22;11317;51.072;17.036;2023-04-03T03:30:33;1.30;1.00
22299;DHT22;11317;51.072;17.036;2023-04-03T03:32:59;0.90;99.90
22299;DHT22;11317;51.072;17.036;2023-04-03T03:40:17;1.10;1.00
22299;DHT22;11317;51.072;17.036;2023-04-03T03:45:09;1.80;1.00
22299;DHT22;11317;51.072;17.036;2023-04-03T03:50:02;0.60;99.90
22299;DHT22;11317;51.072;17.036;2023-04-03T03:52:28;0.60;99.90
22299;DHT22;11317;51.072;17.036;2023-04-03T03:54:55;0.60;99.90
22299;DHT22;11317;51.072;17.036;2023-04-03T03:57:22;0.50;99.90
22299;DHT22;11317;51.072;17.036;2023-04-03T03:59:47;0.60;1.00
22299;DHT22;11317;51.072;17.036;2023-04-03T04:02:14;0.30;1.00
22299;DHT22;11317;51.072;17.036;2023-04-03T04:04:40;0.40;1.00
22299;DHT22;11317;51.072;17.036;2023-04-03T04:07:06;0.70;1.00
22299;DHT22;11317;51.072;17.036;2023-04-03T04:11:58;0.40;1.00
22299;DHT22;11317;51.072;17.036;2023-04-03T04:16:50;0.20;1.00
22299;DHT22;11317;51.072;17.036;2023-04-03T04:24:08;2.90;1.00
22299;DHT22;11317;51.072;17.036;2023-04-03T04:29:00;0.10;1.00
22299;DHT22;11317;51.072;17.036;2023-04-03T04:33:53;-0.60;1.00
22299;DHT22;11317;51.072;17.036;2023-04-03T04:43:37;0.20;1.00
22299;DHT22;11317;51.072;17.036;2023-04-03T04:46:06;0.20;1.00
22299;DHT22;11317;51.072;17.036;2023-04-03T04:50:58;0.50;1.00
22299;DHT22;11317;51.072;17.036;2023-04-03T04:55:52;-0.20;1.00
22299;DHT22;11317;51.072;17.036;2023-04-03T05:00:44;-0.10;1.00
22299;DHT22;11317;51.072;17.036;2023-04-03T05:03:10;0.40;1.00
22299;DHT22;11317;51.072;17.036;2023-04-03T05:10:29;0.50;1.00
22299;DHT22;11317;51.072;17.036;2023-04-03T05:12:54;0.60;1.00
22299;DHT22;11317;51.072;17.036;2023-04-03T05:25:05;0.80;1.00
22299;DHT22;11317;51.072;17.036;2023-04-03T05:27:31;0.70;1.00
22299;DHT22;11317;51.072;17.036;2023-04-03T05:32:26;1.00;99.90
22299;DHT22;11317;51.072;17.036;2023-04-03T05:37:19;1.00;84.40
22299;DHT22;11317;51.072;17.036;2023-04-03T05:39:46;1.30;99.90
22299;DHT22;11317;51.072;17.036;2023-04-03T05:42:12;0.90;99.90
22299;DHT22;11317;51.072;17.036;2023-04-03T05:44:38;1.00;99.90
22299;DHT22;11317;51.072;17.036;2023-04-03T05:47:04;1.00;99.90
22299;DHT22;11317;51.072;17.036;2023-04-03T05:49:30;2.10;1.00
22299;DHT22;11317;51.072;17.036;2023-04-03T05:54:27;1.30;1.00
22299;DHT22;11317;51.072;17.036;2023-04-03T05:56:54;1.70;1.00
22299;DHT22;11317;51.072;17.036;2023-04-03T06:04:13;1.90;1.00
22299;DHT22;11317;51.072;17.036;2023-04-03T06:06:56;2.00;1.00
22299;DHT22;11317;51.072;17.036;2023-04-03T06:14:17;2.50;1.00
22299;DHT22;11317;51.072;17.036;2023-04-03T06:16:43;2.70;99.90
22299;DHT22;11317;51.072;17.036;2023-04-03T06:24:06;2.40;1.00
22299;DHT22;11317;51.072;17.036;2023-04-03T06:26:33;3.00;99.90
22299;DHT22;11317;51.072;17.036;2023-04-03T06:28:59;4.30;99.90
22299;DHT22;11317;51.072;17.036;2023-04-03T06:33:52;3.30;1.00
22299;DHT22;11317;51.072;17.036;2023-04-03T06:36:19;3.50;1.00
22299;DHT22;11317;51.072;17.036;2023-04-03T06:38:48;3.50;1.00
22299;DHT22;11317;51.072;17.036;2023-04-03T06:46:16;4.20;99.90
22299;DHT22;11317;51.072;17.036;2023-04-03T06:51:27;4.50;1.00
22299;DHT22;11317;51.072;17.036;2023-04-03T06:53:53;4.60;1.00
22299;DHT22;11317;51.072;17.036;2023-04-03T07:01:15;5.60;99.90
22299;DHT22;11317;51.072;17.036;2023-04-03T07:06:11;6.20;99.90
22299;DHT22;11317;51.072;17.036;2023-04-03T07:11:04;7.00;99.90
22299;DHT22;11317;51.072;17.036;2023-04-03T08:00:06;17.80;1.00
22299;DHT22;11317;51.072;17.036;2023-04-03T08:52:39;20.00;1.00
22299;DHT22;11317;51.072;17.036;2023-04-03T08:55:28;18.50;1.00
22299;DHT22;11317;51.072;17.036;2023-04-03T09:00:32;19.40;99.90
22299;DHT22;11317;51.072;17.036;2023-04-03T09:23:41;14.90;1.00
22299;DHT22;11317;51.072;17.036;2023-04-03T09:46:36;11.00;1.00
22299;DHT22;11317;51.072;17.036;2023-04-03T10:06:49;11.50;1.00
22299;DHT22;11317;51.072;17.036;2023-04-03T10:09:30;11.80;1.00
